KAUH

Aurora Municipal - Al Potter Field Airport

Aurora, Nebraska, USA
METAR KAUH 232215Z AUTO 08005KT 10SM OVC012 M03/M05 A3024 RMK AO2 T10291052
Observed Flight Rules
Feb-23 @ 22:15 UTC (19 minutes ago) Marginal Visual Flight Rules
Wind Visibility Clouds
80° at 5 knots 10 miles
  • Overcast at 1,200' AGL
Temperatures Readings
Current -3°C / 27°F
Dewpoint -5°C / 23°F
Humidity 86%
Altimeter 30.24" Hg
Pressure 1024 hPa
Elevation 550
METAR KAUH 232215Z AUTO 08005KT 10SM OVC012 M03/M05 A3024 RMK AO2 T10291052
Observed Flight Rules
Feb-23 @ 22:15 UTC
(19 minutes ago)
MVFR
Wind Visibility
80° at 5 knots 10 miles
Clouds
  • Overcast at 1,200' AGL
Temperature Dewpoint
-3°C / 27°F -5°C / 23°F
Humidity Altimeter Pressure
86% 30.24" Hg 1024 hPa